createdAt,value
2019-04-21T00:00:25.967Z,66.80
2019-04-21T00:02:55.380Z,66.90
2019-04-21T00:05:49.589Z,66.70
2019-04-21T00:08:19.426Z,66.60
2019-04-21T00:10:48.658Z,67.10
2019-04-21T00:13:07.793Z,67.00
2019-04-21T00:15:33.155Z,68.00
2019-04-21T00:18:02.130Z,67.80
2019-04-21T00:20:37.728Z,68.30
2019-04-21T00:23:19.877Z,68.50
2019-04-21T00:25:42.919Z,69.00
2019-04-21T00:28:24.108Z,69.00
2019-04-21T00:30:54.562Z,69.00
2019-04-21T00:33:06.764Z,69.20
2019-04-21T00:35:39.604Z,69.30
2019-04-21T00:41:00.464Z,69.40
2019-04-21T00:43:25.269Z,70.30
2019-04-21T00:45:48.138Z,69.60
2019-04-21T00:48:32.948Z,69.10
2019-04-21T00:51:18.468Z,69.00
2019-04-21T00:53:43.453Z,69.30
2019-04-21T00:56:10.682Z,68.70
2019-04-21T00:58:38.711Z,68.80
2019-04-21T01:01:02.305Z,68.90
2019-04-21T01:03:38.000Z,68.30
2019-04-21T01:06:11.232Z,67.90
2019-04-21T01:08:36.934Z,67.50
2019-04-21T01:11:11.368Z,67.30
2019-04-21T01:13:41.266Z,67.00
2019-04-21T01:16:14.096Z,66.90
2019-04-21T01:18:38.131Z,67.20
2019-04-21T01:20:48.264Z,67.30
2019-04-21T01:23:16.814Z,67.90
2019-04-21T01:26:03.157Z,68.10
2019-04-21T01:28:35.880Z,68.20
2019-04-21T01:31:05.952Z,68.00
2019-04-21T01:36:14.461Z,68.00
2019-04-21T01:38:48.317Z,68.20
2019-04-21T01:41:21.355Z,68.60
2019-04-21T01:43:45.180Z,68.00
2019-04-21T01:46:15.400Z,67.70
2019-04-21T01:48:46.040Z,67.90
2019-04-21T01:51:12.964Z,68.00
2019-04-21T01:53:57.982Z,68.30
2019-04-21T01:56:24.079Z,67.80
2019-04-21T01:58:42.923Z,67.90
2019-04-21T02:01:26.216Z,67.90
2019-04-21T02:04:12.275Z,68.00
2019-04-21T02:06:29.099Z,68.10
2019-04-21T02:08:56.342Z,68.10
2019-04-21T02:11:31.008Z,68.30
2019-04-21T02:14:05.450Z,68.30
2019-04-21T02:16:23.877Z,68.20
2019-04-21T02:18:54.594Z,68.20
2019-04-21T02:21:22.066Z,68.60
2019-04-21T02:23:58.656Z,68.80
2019-04-21T02:26:27.412Z,69.10
2019-04-21T02:29:03.261Z,69.70
2019-04-21T02:31:37.623Z,69.70
2019-04-21T02:34:09.273Z,70.30
2019-04-21T02:39:15.707Z,71.40
2019-04-21T02:41:45.614Z,71.60
2019-04-21T02:44:12.356Z,72.20
2019-04-21T02:49:12.971Z,72.60
2019-04-21T02:56:43.842Z,73.20
2019-04-21T02:59:17.127Z,72.60
2019-04-21T03:01:50.350Z,72.60
2019-04-21T03:06:54.155Z,73.70
2019-04-21T03:09:20.578Z,73.90
2019-04-21T03:11:52.878Z,73.70
2019-04-21T03:14:29.962Z,73.80
2019-04-21T03:16:40.522Z,73.90
2019-04-21T03:19:33.180Z,74.20
2019-04-21T03:21:52.566Z,74.10
2019-04-21T03:24:31.435Z,74.50
2019-04-21T03:27:03.499Z,74.70
2019-04-21T03:29:19.938Z,74.40
2019-04-21T03:32:28.280Z,74.10
2019-04-21T03:39:25.537Z,73.90
2019-04-21T03:42:00.255Z,73.80
2019-04-21T03:44:24.719Z,73.50
2019-04-21T03:46:57.965Z,73.40
2019-04-21T03:49:30.438Z,73.50
2019-04-21T03:51:57.332Z,73.20
2019-04-21T03:54:16.060Z,73.20
2019-04-21T03:57:13.117Z,73.50
2019-04-21T03:59:38.207Z,73.50
2019-04-21T04:02:03.545Z,73.60
2019-04-21T04:04:28.396Z,73.90
2019-04-21T04:07:06.086Z,74.30
2019-04-21T04:09:44.504Z,75.70
2019-04-21T04:14:31.045Z,75.20
2019-04-21T04:17:06.426Z,75.50
2019-04-21T04:19:36.227Z,75.80
2019-04-21T04:22:03.987Z,76.20
2019-04-21T04:24:39.599Z,76.30
2019-04-21T04:31:58.798Z,76.20
2019-04-21T04:37:12.641Z,76.00
2019-04-21T04:42:21.775Z,76.00
2019-04-21T04:49:49.826Z,76.30
2019-04-21T04:57:16.105Z,76.70
2019-04-21T04:59:45.504Z,76.50
2019-04-21T05:02:20.074Z,76.20
2019-04-21T05:07:16.941Z,76.80
2019-04-21T05:09:46.864Z,77.40
2019-04-21T05:12:11.748Z,77.50
2019-04-21T05:17:25.294Z,77.60
2019-04-21T05:19:53.318Z,77.40
2019-04-21T05:22:16.841Z,77.20
2019-04-21T05:24:33.301Z,77.00
2019-04-21T05:27:02.858Z,77.00
2019-04-21T05:29:37.583Z,77.00
2019-04-21T05:32:13.753Z,76.80
2019-04-21T05:34:35.752Z,76.60
2019-04-21T05:37:15.608Z,76.60
2019-04-21T05:39:37.582Z,76.90
2019-04-21T05:42:05.123Z,77.10
2019-04-21T05:44:58.132Z,76.80
2019-04-21T05:47:40.121Z,76.20
2019-04-21T05:50:06.520Z,75.50
2019-04-21T05:52:32.952Z,75.30
2019-04-21T05:55:14.538Z,75.20
2019-04-21T05:57:39.445Z,73.90
2019-04-21T06:00:08.777Z,70.20
2019-04-21T06:02:47.203Z,64.00
2019-04-21T06:05:24.517Z,61.40
2019-04-21T06:07:40.721Z,58.40
2019-04-21T06:10:12.613Z,55.30
2019-04-21T06:12:47.147Z,54.70
2019-04-21T06:15:14.341Z,53.20
2019-04-21T06:17:47.253Z,51.00
2019-04-21T06:20:15.362Z,49.50
2019-04-21T06:22:49.029Z,47.90
2019-04-21T06:27:44.325Z,45.90
2019-04-21T06:30:13.454Z,46.20
2019-04-21T06:33:13.545Z,46.60
2019-04-21T06:35:24.222Z,46.80
2019-04-21T06:37:51.054Z,46.40
2019-04-21T06:42:50.398Z,46.20
2019-04-21T06:45:19.712Z,51.00
2019-04-21T06:47:50.162Z,51.90
2019-04-21T06:50:24.243Z,49.90
2019-04-21T06:55:20.446Z,47.70
2019-04-21T06:57:56.039Z,45.60
2019-04-21T07:00:21.089Z,47.00
2019-04-21T07:03:17.111Z,47.40
2019-04-21T07:08:10.955Z,50.60
2019-04-21T07:10:21.009Z,48.20
2019-04-21T07:12:51.938Z,48.80
2019-04-21T07:15:25.349Z,49.10
2019-04-21T07:17:51.228Z,48.30
2019-04-21T07:20:21.812Z,49.70
2019-04-21T07:22:54.260Z,48.90
2019-04-21T07:25:25.838Z,45.80
2019-04-21T07:27:52.685Z,44.70
2019-04-21T07:30:26.633Z,46.40
2019-04-21T07:32:58.016Z,42.40
2019-04-21T07:35:22.096Z,44.80
2019-04-21T07:37:53.658Z,43.00
2019-04-21T07:40:20.316Z,43.10
2019-04-21T07:42:48.051Z,43.80
2019-04-21T07:45:18.014Z,43.00
2019-04-21T07:47:55.487Z,42.60
2019-04-21T07:50:35.018Z,40.00
2019-04-21T07:53:09.362Z,39.20
2019-04-21T07:58:02.827Z,40.40
2019-04-21T08:00:36.764Z,40.70
2019-04-21T08:05:35.303Z,40.30
2019-04-21T08:07:57.986Z,38.40
2019-04-21T08:10:33.521Z,38.60
2019-04-21T08:13:00.046Z,38.30
2019-04-21T08:15:38.562Z,38.20
2019-04-21T08:18:07.529Z,34.50
2019-04-21T08:20:38.744Z,35.10
2019-04-21T08:23:04.698Z,36.60
2019-04-21T08:25:46.309Z,37.70
2019-04-21T08:28:07.384Z,37.40
2019-04-21T08:30:36.598Z,39.20
2019-04-21T08:33:16.248Z,38.90
2019-04-21T08:38:10.630Z,40.10
2019-04-21T08:40:44.119Z,40.60
2019-04-21T08:43:12.604Z,38.20
2019-04-21T08:45:41.599Z,39.40
2019-04-21T08:48:12.420Z,37.00
2019-04-21T08:50:36.353Z,37.70
2019-04-21T08:53:09.496Z,38.20
2019-04-21T08:55:48.976Z,38.90
2019-04-21T09:00:46.821Z,42.70
2019-04-21T09:03:16.220Z,42.30
2019-04-21T09:05:42.622Z,43.30
2019-04-21T09:08:20.447Z,44.20
2019-04-21T09:10:47.026Z,45.00
2019-04-21T09:13:17.294Z,45.80
2019-04-21T09:15:41.633Z,47.50
2019-04-21T09:18:17.533Z,47.00
2019-04-21T09:20:55.286Z,46.60
2019-04-21T09:23:19.872Z,48.80
2019-04-21T09:28:14.767Z,48.80
2019-04-21T09:30:33.797Z,47.20
2019-04-21T09:33:01.622Z,45.00
2019-04-21T09:35:29.820Z,43.90
2019-04-21T09:38:07.795Z,46.70
2019-04-21T09:40:36.049Z,48.10
2019-04-21T09:43:03.237Z,48.00
2019-04-21T09:45:30.628Z,48.70
2019-04-21T09:48:06.373Z,48.70
2019-04-21T09:50:29.583Z,49.20
2019-04-21T09:53:05.445Z,47.10
2019-04-21T09:55:39.146Z,48.50
2019-04-21T09:58:10.025Z,48.70
2019-04-21T10:00:31.277Z,47.60
2019-04-21T10:03:05.835Z,49.20
2019-04-21T10:05:29.773Z,48.40
2019-04-21T10:07:58.261Z,49.00
2019-04-21T10:10:27.573Z,47.20
2019-04-21T10:12:56.340Z,46.60
2019-04-21T10:15:28.245Z,48.30
2019-04-21T10:17:58.344Z,47.10
2019-04-21T10:20:26.921Z,46.90
2019-04-21T10:22:55.448Z,46.80
2019-04-21T10:25:24.990Z,46.40
2019-04-21T10:27:54.840Z,45.40
2019-04-21T10:30:24.609Z,45.90
2019-04-21T10:32:54.321Z,44.70
2019-04-21T10:35:24.330Z,46.10
2019-04-21T10:38:05.315Z,46.60
2019-04-21T10:40:25.469Z,45.70
2019-04-21T10:42:54.206Z,45.80
2019-04-21T10:45:23.094Z,44.60
2019-04-21T10:47:52.802Z,44.40
2019-04-21T10:50:22.631Z,44.10
2019-04-21T10:52:53.225Z,42.90
2019-04-21T10:55:41.798Z,42.90
2019-04-21T10:57:55.914Z,45.30
2019-04-21T11:00:24.492Z,44.30
2019-04-21T11:02:54.811Z,45.80
2019-04-21T11:05:24.843Z,44.80
2019-04-21T11:08:08.976Z,44.60
2019-04-21T11:10:25.757Z,44.10
2019-04-21T11:12:54.701Z,44.00
2019-04-21T11:15:23.422Z,43.00
2019-04-21T11:17:52.316Z,44.10
2019-04-21T11:20:20.973Z,41.50
2019-04-21T11:22:49.527Z,36.10
2019-04-21T11:25:18.094Z,39.70
2019-04-21T11:27:47.032Z,40.80
2019-04-21T11:30:15.849Z,39.80
2019-04-21T11:32:46.352Z,39.10
2019-04-21T11:35:15.226Z,38.00
2019-04-21T11:37:44.065Z,37.70
2019-04-21T11:40:16.287Z,38.10
2019-04-21T11:42:44.048Z,39.10
2019-04-21T11:45:16.535Z,39.10
2019-04-21T11:47:48.169Z,36.70
2019-04-21T11:50:17.072Z,39.20
2019-04-21T11:52:47.233Z,38.00
2019-04-21T11:55:16.602Z,39.20
2019-04-21T11:57:48.644Z,41.20
2019-04-21T12:00:15.794Z,38.60
2019-04-21T12:02:45.627Z,39.40
2019-04-21T12:05:15.122Z,38.70
2019-04-21T12:07:45.030Z,38.40
2019-04-21T12:10:13.849Z,38.70
2019-04-21T12:12:43.330Z,37.90
2019-04-21T12:15:14.140Z,39.40
2019-04-21T12:17:43.881Z,38.30
2019-04-21T12:20:13.098Z,38.50
2019-04-21T12:22:41.652Z,38.90
2019-04-21T12:25:13.302Z,38.70
2019-04-21T12:27:41.912Z,39.50
2019-04-21T12:30:13.874Z,38.90
2019-04-21T12:32:44.333Z,40.10
2019-04-21T12:35:15.760Z,38.30
2019-04-21T12:37:44.834Z,39.10
2019-04-21T12:40:14.728Z,39.20
2019-04-21T12:42:43.791Z,39.00
2019-04-21T12:45:15.238Z,39.70
2019-04-21T12:47:44.069Z,38.20
2019-04-21T12:50:13.061Z,38.00
2019-04-21T12:52:41.958Z,39.40
2019-04-21T12:55:11.436Z,37.70
2019-04-21T12:57:41.238Z,39.60
2019-04-21T13:00:13.115Z,39.60
2019-04-21T13:02:41.789Z,38.40
2019-04-21T13:05:11.657Z,38.40
2019-04-21T13:07:41.466Z,37.40
2019-04-21T13:10:12.721Z,38.00
2019-04-21T13:12:41.750Z,36.60
2019-04-21T13:15:11.048Z,39.00
2019-04-21T13:17:39.584Z,38.60
2019-04-21T13:20:11.480Z,38.20
2019-04-21T13:22:40.181Z,39.10
2019-04-21T13:25:09.707Z,37.70
2019-04-21T13:27:38.779Z,38.10
2019-04-21T13:30:10.533Z,36.80
2019-04-21T13:32:39.157Z,36.90
2019-04-21T13:35:10.730Z,36.90
2019-04-21T13:37:43.652Z,37.00
2019-04-21T13:40:34.110Z,37.70
2019-04-21T13:42:51.691Z,36.90
2019-04-21T13:45:18.326Z,37.60
2019-04-21T13:47:48.391Z,37.00
2019-04-21T13:50:17.417Z,36.20
2019-04-21T13:52:46.808Z,36.60
2019-04-21T13:55:15.910Z,35.90
2019-04-21T13:57:44.571Z,35.70
2019-04-21T14:00:15.033Z,36.60
2019-04-21T14:02:44.798Z,37.20
2019-04-21T14:05:15.725Z,35.30
2019-04-21T14:07:44.140Z,35.60
2019-04-21T14:10:14.268Z,35.20
2019-04-21T14:12:44.487Z,35.30
2019-04-21T14:15:14.650Z,34.90
2019-04-21T14:17:44.567Z,34.70
2019-04-21T14:20:13.287Z,35.10
2019-04-21T14:22:42.209Z,36.20
2019-04-21T14:25:12.126Z,35.70
2019-04-21T14:27:41.827Z,35.70
2019-04-21T14:30:12.255Z,36.60
2019-04-21T14:32:42.088Z,34.60
2019-04-21T14:35:12.442Z,35.60
2019-04-21T14:37:42.464Z,36.10
2019-04-21T14:40:16.238Z,34.10
2019-04-21T14:42:42.299Z,34.60
2019-04-21T14:45:12.744Z,34.60
2019-04-21T14:47:44.184Z,34.60
2019-04-21T14:50:15.551Z,33.80
2019-04-21T14:52:44.479Z,34.30
2019-04-21T14:55:14.854Z,34.70
2019-04-21T14:57:43.561Z,35.80
2019-04-21T15:00:15.920Z,35.10
2019-04-21T15:02:45.550Z,35.30
2019-04-21T15:05:15.605Z,35.80
2019-04-21T15:07:45.381Z,35.70
2019-04-21T15:10:19.044Z,34.80
2019-04-21T15:12:45.655Z,35.00
2019-04-21T15:15:15.872Z,34.70
2019-04-21T15:17:46.176Z,34.90
2019-04-21T15:20:17.323Z,34.80
2019-04-21T15:22:46.253Z,34.90
2019-04-21T15:25:16.114Z,34.20
2019-04-21T15:27:45.135Z,34.70
2019-04-21T15:30:16.467Z,35.30
2019-04-21T15:32:46.404Z,36.30
2019-04-21T15:35:15.290Z,37.00
2019-04-21T15:37:44.121Z,37.30
2019-04-21T15:40:21.452Z,35.10
2019-04-21T15:42:44.207Z,35.90
2019-04-21T15:45:12.968Z,36.00
2019-04-21T15:47:42.125Z,35.40
2019-04-21T15:50:17.202Z,36.00
2019-04-21T15:52:41.737Z,35.30
2019-04-21T15:55:12.765Z,36.00
2019-04-21T15:57:42.963Z,36.90
2019-04-21T16:00:16.242Z,36.00
2019-04-21T16:02:46.764Z,36.60
2019-04-21T16:05:16.811Z,36.40
2019-04-21T16:07:45.460Z,37.90
2019-04-21T16:10:32.723Z,37.50
2019-04-21T16:12:47.734Z,36.70
2019-04-21T16:15:16.742Z,37.50
2019-04-21T16:17:45.617Z,38.20
2019-04-21T16:20:15.482Z,39.80
2019-04-21T16:25:18.874Z,39.20
2019-04-21T16:27:47.706Z,39.30
2019-04-21T16:30:17.653Z,39.70
2019-04-21T16:32:46.268Z,39.80
2019-04-21T16:35:16.507Z,40.00
2019-04-21T16:37:45.802Z,39.60
2019-04-21T16:40:15.319Z,39.30
2019-04-21T16:42:43.849Z,39.50
2019-04-21T16:45:14.676Z,40.70
2019-04-21T16:47:44.209Z,40.70
2019-04-21T16:50:13.931Z,41.60
2019-04-21T16:52:44.064Z,42.50
2019-04-21T16:55:14.949Z,42.30
2019-04-21T16:57:53.061Z,41.80
2019-04-21T17:00:27.866Z,41.90
2019-04-21T17:02:48.279Z,42.40
2019-04-21T17:05:18.210Z,42.50
2019-04-21T17:07:47.137Z,43.10
2019-04-21T17:10:16.953Z,43.30
2019-04-21T17:12:45.661Z,43.00
2019-04-21T17:15:32.394Z,44.60
2019-04-21T17:18:06.142Z,44.30
2019-04-21T17:20:30.013Z,44.00
2019-04-21T17:22:45.735Z,44.20
2019-04-21T17:25:16.100Z,44.20
2019-04-21T17:27:44.965Z,44.10
2019-04-21T17:30:14.749Z,44.60
2019-04-21T17:32:48.419Z,43.60
2019-04-21T17:35:14.285Z,43.10
2019-04-21T17:37:42.722Z,43.90
2019-04-21T17:40:11.654Z,43.80
2019-04-21T17:42:46.563Z,45.10
2019-04-21T17:45:10.939Z,45.00
2019-04-21T17:47:46.823Z,45.90
2019-04-21T17:50:11.718Z,46.10
2019-04-21T17:52:48.255Z,46.40
2019-04-21T17:55:22.990Z,46.70
2019-04-21T17:58:08.387Z,48.00
2019-04-21T18:00:57.825Z,48.50
2019-04-21T18:03:24.248Z,49.00
2019-04-21T18:05:40.991Z,49.70
2019-04-21T18:08:14.034Z,50.00
2019-04-21T18:10:38.998Z,51.40
2019-04-21T18:13:01.329Z,51.90
2019-04-21T18:15:40.275Z,52.70
2019-04-21T18:17:56.566Z,52.60
2019-04-21T18:20:28.038Z,53.40
2019-04-21T18:23:00.929Z,53.90
2019-04-21T18:25:42.334Z,54.20
2019-04-21T18:28:02.942Z,54.70
2019-04-21T18:30:35.752Z,54.90
2019-04-21T18:33:15.501Z,55.30
2019-04-21T18:35:43.016Z,55.60
2019-04-21T18:38:16.653Z,55.70
2019-04-21T18:40:45.193Z,56.50
2019-04-21T18:43:48.862Z,56.90
2019-04-21T18:46:06.950Z,56.70
2019-04-21T18:48:24.709Z,57.30
2019-04-21T18:50:53.677Z,57.20
2019-04-21T18:53:39.883Z,57.20
2019-04-21T18:55:55.728Z,57.50
2019-04-21T18:58:18.263Z,58.00
2019-04-21T19:00:48.744Z,58.30
2019-04-21T19:03:25.348Z,58.50
2019-04-21T19:05:53.203Z,59.30
2019-04-21T19:08:30.644Z,60.10
2019-04-21T19:11:08.836Z,60.20
2019-04-21T19:13:53.631Z,60.50
2019-04-21T19:16:27.989Z,60.80
2019-04-21T19:18:50.555Z,60.90
2019-04-21T19:21:08.727Z,61.50
2019-04-21T19:23:45.256Z,61.70
2019-04-21T19:26:23.338Z,61.40
2019-04-21T19:28:47.173Z,61.40
2019-04-21T19:31:12.727Z,61.50
2019-04-21T19:33:33.343Z,61.50
2019-04-21T19:35:51.039Z,62.00
2019-04-21T19:38:30.560Z,62.30
2019-04-21T19:41:09.264Z,62.60
2019-04-21T19:43:44.210Z,63.10
2019-04-21T19:46:09.745Z,63.50
2019-04-21T19:48:44.599Z,64.00
2019-04-21T19:51:10.809Z,64.50
2019-04-21T19:53:34.900Z,64.80
2019-04-21T19:55:51.989Z,64.90
2019-04-21T19:58:27.556Z,65.60
2019-04-21T20:00:53.493Z,65.90
2019-04-21T20:03:20.995Z,66.00
2019-04-21T20:06:00.179Z,66.60
2019-04-21T20:08:32.611Z,66.90
2019-04-21T20:11:11.382Z,67.30
2019-04-21T20:13:56.954Z,67.20
2019-04-21T20:16:07.994Z,67.10
2019-04-21T20:18:27.247Z,67.60
2019-04-21T20:20:52.055Z,68.00
2019-04-21T20:23:26.122Z,68.50
2019-04-21T20:25:55.954Z,68.70
2019-04-21T20:28:34.527Z,69.10
2019-04-21T20:31:10.787Z,69.00
2019-04-21T20:38:31.192Z,69.50
2019-04-21T20:41:00.099Z,69.80
2019-04-21T20:43:42.626Z,69.50
2019-04-21T20:46:07.907Z,69.90
2019-04-21T20:48:40.114Z,70.40
2019-04-21T20:51:18.431Z,70.80
2019-04-21T20:53:36.163Z,70.70
2019-04-21T20:56:02.181Z,70.80
2019-04-21T20:58:40.724Z,71.10
2019-04-21T21:01:25.695Z,71.30
2019-04-21T21:03:42.273Z,71.40
2019-04-21T21:06:07.566Z,71.40
2019-04-21T21:08:40.260Z,71.20
2019-04-21T21:11:07.989Z,71.10
2019-04-21T21:13:44.745Z,71.50
2019-04-21T21:16:24.707Z,71.60
2019-04-21T21:21:11.168Z,71.60
2019-04-21T21:23:42.924Z,71.90
2019-04-21T21:28:34.063Z,71.70
2019-04-21T21:31:11.502Z,71.80
2019-04-21T21:33:47.707Z,72.00
2019-04-21T21:36:10.700Z,71.90
2019-04-21T21:38:45.859Z,71.90
2019-04-21T21:41:03.677Z,72.00
2019-04-21T21:43:25.151Z,72.30
2019-04-21T21:45:56.109Z,72.60
2019-04-21T21:48:38.018Z,72.70
2019-04-21T21:51:04.181Z,73.00
2019-04-21T21:53:28.434Z,72.90
2019-04-21T21:55:53.702Z,73.30
2019-04-21T21:58:27.482Z,73.50
2019-04-21T22:00:58.596Z,73.70
2019-04-21T22:03:30.964Z,73.90
2019-04-21T22:06:03.574Z,74.40
2019-04-21T22:08:24.783Z,74.40
2019-04-21T22:10:54.897Z,74.50
2019-04-21T22:13:34.143Z,74.80
2019-04-21T22:15:56.597Z,75.20
2019-04-21T22:18:42.115Z,75.40
2019-04-21T22:21:07.657Z,75.80
2019-04-21T22:23:36.996Z,75.90
2019-04-21T22:25:55.485Z,75.80
2019-04-21T22:28:25.305Z,75.90
2019-04-21T22:30:55.155Z,76.10
2019-04-21T22:33:25.785Z,75.60
2019-04-21T22:36:02.671Z,75.80
2019-04-21T22:38:40.180Z,76.00
2019-04-21T22:41:05.968Z,75.90
2019-04-21T22:43:32.471Z,76.40
2019-04-21T22:45:55.724Z,76.80
2019-04-21T22:48:28.212Z,76.80
2019-04-21T22:50:54.593Z,76.80
2019-04-21T22:53:23.130Z,77.00
2019-04-21T22:55:58.649Z,76.40
2019-04-21T22:58:25.946Z,76.80
2019-04-21T23:00:56.206Z,76.70
2019-04-21T23:03:24.869Z,77.50
2019-04-21T23:05:53.710Z,76.60
2019-04-21T23:08:28.862Z,76.70
2019-04-21T23:10:58.492Z,76.10
2019-04-21T23:13:24.118Z,75.90
2019-04-21T23:15:57.244Z,75.00
2019-04-21T23:18:37.472Z,75.00
2019-04-21T23:21:10.396Z,74.60
2019-04-21T23:23:44.328Z,74.70
2019-04-21T23:26:14.399Z,74.70
2019-04-21T23:28:45.522Z,74.50
2019-04-21T23:31:12.453Z,74.10
2019-04-21T23:33:25.724Z,74.00
2019-04-21T23:36:05.184Z,74.30
2019-04-21T23:38:30.288Z,74.00
2019-04-21T23:40:59.915Z,74.00
2019-04-21T23:43:29.198Z,73.80
2019-04-21T23:45:57.180Z,74.10
2019-04-21T23:48:36.503Z,74.10
2019-04-21T23:51:12.197Z,74.40
2019-04-21T23:53:26.087Z,74.20
2019-04-21T23:55:54.921Z,74.10
2019-04-21T23:58:26.381Z,73.80
